Rhum Marin — FAE4673 — position and weather

sailwx.info

Track history (hours):
 
Tides and Currents Weather Stations Pressure Air Temp Water Temp Dewpoint Dewpoint Depression Visibility Wind Speed Wind Dir Waves Ship Positions

Rhum Marin

Last reported at 2017-Sep-22 01:59 UTC. Time now 2017-Sep-23 07:43 UTC.
Position N 46°09' W 001°10'.

Length 12 m.

Type: Pleasure craft. MMSI: 227479020.

Date/timePositionNaut miles runAvg speedWind from/ knotsBaromVisibWave heightAir tempDewpointWater temp
2017-Sep-22 01:59N 46°09' W 001°10'0 0.0
2017-Sep-22 01:29N 46°09' W 001°10'0 0.0
2017-Sep-22 00:59N 46°09' W 001°10'0 0.0
2017-Sep-22 00:29N 46°09' W 001°10'0 0.0
2017-Sep-21 23:59N 46°09' W 001°10'0 0.0
2017-Sep-21 23:29N 46°09' W 001°10'0 0.0
2017-Sep-21 22:59N 46°09' W 001°10'0 0.0
2017-Sep-21 22:29N 46°09' W 001°10'0 0.0
2017-Sep-21 21:59N 46°09' W 001°10'0 0.0
2017-Sep-21 21:23N 46°09' W 001°10'0 0.0
2017-Sep-21 20:59N 46°09' W 001°10'0 0.0
2017-Sep-21 20:26N 46°09' W 001°10'0 0.0
2017-Sep-21 19:59N 46°09' W 001°10'0 0.0
2017-Sep-21 19:29N 46°09' W 001°10'0 0.0
2017-Sep-21 18:59N 46°09' W 001°10'0 0.0
2017-Sep-21 18:29N 46°09' W 001°10'0 0.0
2017-Sep-21 17:59N 46°09' W 001°10'  
2017-Sep-17 15:40N 46°09' W 001°10'0 0.0
2017-Sep-17 15:30N 46°09' W 001°10'1 1.6
2017-Sep-17 15:00N 46°09' W 001°11'2 3.5
2017-Sep-17 14:30N 46°08' W 001°13'2 3.9
2017-Sep-17 14:00N 46°09' W 001°15'2 3.3
2017-Sep-17 13:30N 46°11' W 001°16'2 4.1
2017-Sep-17 12:57N 46°12' W 001°19'3 5.0
2017-Sep-17 12:23N 46°15' W 001°18'3 5.3
2017-Sep-17 11:54N 46°12' W 001°18'3 6.4
2017-Sep-17 11:29N 46°14' W 001°15'1 2.2
2017-Sep-17 10:59N 46°13' W 001°14'4 7.4
2017-Sep-17 10:30N 46°10' W 001°15'1 2.5
2017-Sep-17 10:00N 46°09' W 001°14'1 2.8
2017-Sep-17 09:30N 46°07' W 001°15'2 3.0
2017-Sep-17 08:59N 46°08' W 001°13'2 3.8
2017-Sep-17 08:30N 46°09' W 001°10'0 0.6
2017-Sep-17 07:57N 46°09' W 001°10'0 0.0
2017-Sep-17 07:30N 46°09' W 001°10'  
Track history (hours):
 
Tides and Currents Weather Stations Pressure Air Temp Water Temp Dewpoint Dewpoint Depression Visibility Wind Speed Wind Dir Waves Ship Positions

Rhum Marin

Last reported at 2017-Sep-22 01:59 UTC. Time now 2017-Sep-23 07:43 UTC.
Position N 46°09' W 001°10'.

Length 12 m.

Type: Pleasure craft. MMSI: 227479020.

Date/timePositionNaut miles runAvg speedWind from/ knotsBaromVisibWave heightAir tempDewpointWater temp
2017-Sep-22 01:59N 46°09' W 001°10'0 0.0
2017-Sep-22 01:29N 46°09' W 001°10'0 0.0
2017-Sep-22 00:59N 46°09' W 001°10'0 0.0
2017-Sep-22 00:29N 46°09' W 001°10'0 0.0
2017-Sep-21 23:59N 46°09' W 001°10'0 0.0
2017-Sep-21 23:29N 46°09' W 001°10'0 0.0
2017-Sep-21 22:59N 46°09' W 001°10'0 0.0
2017-Sep-21 22:29N 46°09' W 001°10'0 0.0
2017-Sep-21 21:59N 46°09' W 001°10'0 0.0
2017-Sep-21 21:23N 46°09' W 001°10'0 0.0
2017-Sep-21 20:59N 46°09' W 001°10'0 0.0
2017-Sep-21 20:26N 46°09' W 001°10'0 0.0
2017-Sep-21 19:59N 46°09' W 001°10'0 0.0
2017-Sep-21 19:29N 46°09' W 001°10'0 0.0
2017-Sep-21 18:59N 46°09' W 001°10'0 0.0
2017-Sep-21 18:29N 46°09' W 001°10'0 0.0
2017-Sep-21 17:59N 46°09' W 001°10'  
2017-Sep-17 15:40N 46°09' W 001°10'0 0.0
2017-Sep-17 15:30N 46°09' W 001°10'1 1.6
2017-Sep-17 15:00N 46°09' W 001°11'2 3.5
2017-Sep-17 14:30N 46°08' W 001°13'2 3.9
2017-Sep-17 14:00N 46°09' W 001°15'2 3.3
2017-Sep-17 13:30N 46°11' W 001°16'2 4.1
2017-Sep-17 12:57N 46°12' W 001°19'3 5.0
2017-Sep-17 12:23N 46°15' W 001°18'3 5.3
2017-Sep-17 11:54N 46°12' W 001°18'3 6.4
2017-Sep-17 11:29N 46°14' W 001°15'1 2.2
2017-Sep-17 10:59N 46°13' W 001°14'4 7.4
2017-Sep-17 10:30N 46°10' W 001°15'1 2.5
2017-Sep-17 10:00N 46°09' W 001°14'1 2.8
2017-Sep-17 09:30N 46°07' W 001°15'2 3.0
2017-Sep-17 08:59N 46°08' W 001°13'2 3.8
2017-Sep-17 08:30N 46°09' W 001°10'0 0.6
2017-Sep-17 07:57N 46°09' W 001°10'0 0.0
2017-Sep-17 07:30N 46°09' W 001°10'  

Dump ship's entire track history